createdAt,value
2019-06-07T00:02:38.169Z,99.90
2019-06-07T00:05:26.256Z,99.90
2019-06-07T00:08:22.672Z,99.90
2019-06-07T00:11:04.608Z,99.90
2019-06-07T00:13:52.591Z,99.90
2019-06-07T00:16:40.637Z,99.90
2019-06-07T00:19:28.828Z,99.90
2019-06-07T00:22:31.213Z,99.90
2019-06-07T00:25:10.163Z,99.90
2019-06-07T00:27:56.627Z,99.90
2019-06-07T00:30:51.729Z,99.90
2019-06-07T00:33:33.993Z,99.90
2019-06-07T00:36:23.253Z,99.90
2019-06-07T00:39:13.666Z,99.90
2019-06-07T00:42:01.000Z,99.90
2019-06-07T00:44:49.305Z,99.90
2019-06-07T00:47:37.597Z,99.90
2019-06-07T00:50:26.347Z,99.90
2019-06-07T00:53:18.241Z,99.90
2019-06-07T00:56:04.300Z,99.90
2019-06-07T00:59:10.309Z,99.90
2019-06-07T01:01:41.916Z,99.90
2019-06-07T01:04:30.182Z,99.90
2019-06-07T01:07:19.738Z,99.90
2019-06-07T01:10:10.439Z,99.90
2019-06-07T01:12:58.733Z,99.90
2019-06-07T01:15:46.947Z,99.90
2019-06-07T01:18:39.338Z,99.90
2019-06-07T01:21:29.443Z,99.90
2019-06-07T01:24:15.253Z,99.90
2019-06-07T01:27:03.665Z,99.90
2019-06-07T01:29:51.508Z,99.90
2019-06-07T01:32:39.346Z,99.90
2019-06-07T01:35:29.592Z,99.90
2019-06-07T01:38:21.189Z,99.90
2019-06-07T01:41:06.847Z,99.90
2019-06-07T01:43:54.217Z,99.90
2019-06-07T01:46:42.035Z,99.90
2019-06-07T01:49:30.131Z,99.90
2019-06-07T01:52:19.591Z,99.90
2019-06-07T01:55:08.184Z,99.90
2019-06-07T01:57:56.023Z,99.90
2019-06-07T02:00:44.382Z,99.90
2019-06-07T02:03:33.389Z,99.90
2019-06-07T02:06:23.761Z,99.90
2019-06-07T02:09:10.612Z,99.90
2019-06-07T02:11:58.240Z,99.90
2019-06-07T02:14:46.354Z,99.90
2019-06-07T02:17:33.928Z,99.90
2019-06-07T02:20:23.881Z,99.90
2019-06-07T02:23:11.604Z,99.90
2019-06-07T02:26:00.270Z,99.90
2019-06-07T02:28:48.603Z,99.90
2019-06-07T02:31:39.394Z,99.90
2019-06-07T02:34:28.175Z,99.90
2019-06-07T02:37:15.458Z,99.90
2019-06-07T02:40:03.113Z,99.90
2019-06-07T02:42:51.434Z,99.90
2019-06-07T02:45:43.443Z,99.90
2019-06-07T02:48:35.456Z,99.90
2019-06-07T02:51:18.081Z,99.90
2019-06-07T02:54:07.312Z,99.90
2019-06-07T02:56:58.842Z,99.90
2019-06-07T03:00:05.537Z,99.90
2019-06-07T03:02:40.999Z,99.90
2019-06-07T03:05:25.162Z,99.90
2019-06-07T03:08:14.531Z,99.90
2019-06-07T03:11:02.863Z,99.90
2019-06-07T03:13:52.082Z,99.90
2019-06-07T03:16:48.834Z,99.90
2019-06-07T03:19:41.065Z,99.90
2019-06-07T03:22:32.058Z,99.90
2019-06-07T03:25:20.611Z,99.90
2019-06-07T03:28:09.054Z,99.90
2019-06-07T03:31:02.159Z,99.90
2019-06-07T03:33:45.965Z,99.90
2019-06-07T03:36:35.360Z,99.90
2019-06-07T03:39:25.277Z,99.90
2019-06-07T03:42:14.026Z,99.90
2019-06-07T03:45:02.286Z,99.90
2019-06-07T03:47:50.708Z,99.90
2019-06-07T03:50:42.188Z,99.90
2019-06-07T03:53:30.481Z,99.90
2019-06-07T03:56:17.700Z,99.90
2019-06-07T03:59:05.925Z,99.90
2019-06-07T04:01:54.045Z,99.90
2019-06-07T04:04:42.409Z,99.90
2019-06-07T04:07:31.194Z,99.90
2019-06-07T04:10:41.162Z,99.90
2019-06-07T04:13:10.056Z,99.90
2019-06-07T04:15:57.721Z,99.90
2019-06-07T04:18:45.869Z,99.90
2019-06-07T04:21:36.905Z,99.90
2019-06-07T04:24:24.560Z,99.90
2019-06-07T04:27:12.327Z,99.90
2019-06-07T04:30:07.082Z,99.90
2019-06-07T04:32:51.013Z,99.90
2019-06-07T04:35:43.093Z,99.90
2019-06-07T04:38:36.176Z,99.90
2019-06-07T04:41:24.699Z,99.90
2019-06-07T04:44:13.757Z,99.90
2019-06-07T04:47:04.789Z,99.90
2019-06-07T04:49:53.445Z,99.90
2019-06-07T04:52:44.840Z,99.90
2019-06-07T04:55:31.486Z,99.90
2019-06-07T04:58:19.864Z,99.90
2019-06-07T05:01:26.370Z,99.90
2019-06-07T05:03:58.539Z,99.90
2019-06-07T05:06:46.659Z,99.90
2019-06-07T05:09:37.522Z,99.90
2019-06-07T05:12:25.354Z,99.90
2019-06-07T05:15:13.789Z,99.90
2019-06-07T05:18:01.396Z,99.90
2019-06-07T05:20:49.055Z,99.90
2019-06-07T05:26:27.304Z,99.90
2019-06-07T05:29:15.132Z,99.90
2019-06-07T05:32:03.307Z,99.90
2019-06-07T05:34:51.232Z,99.90
2019-06-07T05:37:41.816Z,99.90
2019-06-07T05:40:35.000Z,99.90
2019-06-07T05:43:28.473Z,99.90
2019-06-07T05:46:16.843Z,99.90
2019-06-07T05:49:05.294Z,99.90
2019-06-07T05:51:54.298Z,99.90
2019-06-07T05:54:45.341Z,99.90
2019-06-07T05:57:35.889Z,99.90
2019-06-07T06:00:22.171Z,99.90
2019-06-07T06:03:09.856Z,99.90
2019-06-07T06:05:57.856Z,99.90
2019-06-07T06:08:47.940Z,99.90
2019-06-07T06:11:46.791Z,99.90
2019-06-07T06:14:24.265Z,99.90
2019-06-07T06:17:12.012Z,99.90
2019-06-07T06:19:59.492Z,99.90
2019-06-07T06:22:51.078Z,99.90
2019-06-07T06:25:38.536Z,99.90
2019-06-07T06:28:27.425Z,99.90
2019-06-07T06:31:15.252Z,99.90
2019-06-07T06:34:03.197Z,99.90
2019-06-07T06:36:51.051Z,99.90
2019-06-07T06:39:39.570Z,99.90
2019-06-07T06:42:27.417Z,99.90
2019-06-07T06:45:17.121Z,99.90
2019-06-07T06:48:04.877Z,99.90
2019-06-07T06:50:52.813Z,99.90
2019-06-07T06:53:42.210Z,99.90
2019-06-07T06:56:30.581Z,99.90
2019-06-07T06:59:38.155Z,99.90
2019-06-07T07:02:08.000Z,99.90
2019-06-07T07:04:55.921Z,99.90
2019-06-07T07:07:45.437Z,99.90
2019-06-07T07:10:43.093Z,99.90
2019-06-07T07:13:31.263Z,99.90
2019-06-07T07:16:19.210Z,99.90
2019-06-07T07:19:07.349Z,99.90
2019-06-07T07:21:55.500Z,99.90
2019-06-07T07:24:44.492Z,99.90
2019-06-07T07:27:32.450Z,99.90
2019-06-07T07:30:36.899Z,99.90
2019-06-07T07:33:14.668Z,99.90
2019-06-07T07:36:19.065Z,99.90
2019-06-07T07:39:00.662Z,99.90
2019-06-07T07:41:41.103Z,99.90
2019-06-07T07:44:29.470Z,99.90
2019-06-07T07:47:17.619Z,99.90
2019-06-07T07:50:05.883Z,99.90
2019-06-07T07:53:00.063Z,99.90
2019-06-07T07:55:44.921Z,99.90
2019-06-07T07:58:32.362Z,99.90
2019-06-07T08:01:20.475Z,99.90
2019-06-07T08:04:08.505Z,99.90
2019-06-07T08:06:56.144Z,99.90
2019-06-07T08:09:43.994Z,99.90
2019-06-07T08:12:54.692Z,99.90
2019-06-07T08:15:21.572Z,99.90
2019-06-07T08:18:09.685Z,99.90
2019-06-07T08:21:20.446Z,99.90
2019-06-07T08:23:47.564Z,99.90
2019-06-07T08:26:36.181Z,99.90
2019-06-07T08:29:23.869Z,99.90
2019-06-07T08:32:11.729Z,99.90
2019-06-07T08:35:05.637Z,99.90
2019-06-07T08:38:22.098Z,99.90
2019-06-07T08:40:38.104Z,99.90
2019-06-07T08:43:25.946Z,99.90
2019-06-07T08:46:13.608Z,99.60
2019-06-07T08:49:04.418Z,99.80
2019-06-07T08:51:54.318Z,99.40
2019-06-07T08:54:39.780Z,99.20
2019-06-07T08:57:27.465Z,99.00
2019-06-07T09:00:43.017Z,99.90
2019-06-07T09:03:07.483Z,98.50
2019-06-07T09:05:57.210Z,99.20
2019-06-07T09:08:45.261Z,99.10
2019-06-07T09:11:32.796Z,96.80
2019-06-07T09:14:20.666Z,97.00
2019-06-07T09:17:12.053Z,96.20
2019-06-07T09:19:58.923Z,96.90
2019-06-07T09:22:47.039Z,96.00
2019-06-07T09:25:55.497Z,95.50
2019-06-07T09:28:24.843Z,95.90
2019-06-07T09:31:13.187Z,94.00
2019-06-07T09:34:10.310Z,95.80
2019-06-07T09:36:50.293Z,94.60
2019-06-07T09:39:38.761Z,96.00
2019-06-07T09:42:26.033Z,93.50
2019-06-07T09:45:14.234Z,93.90
2019-06-07T09:48:10.104Z,93.80
2019-06-07T09:50:51.855Z,93.80
2019-06-07T09:53:39.578Z,93.80
2019-06-07T09:56:27.102Z,94.90
2019-06-07T09:59:14.534Z,94.80
2019-06-07T10:02:03.649Z,91.90
2019-06-07T10:04:51.906Z,92.30
2019-06-07T10:07:51.476Z,92.40
2019-06-07T10:13:18.132Z,91.90
2019-06-07T10:16:06.988Z,92.20
2019-06-07T10:18:54.624Z,92.00
2019-06-07T10:21:42.373Z,92.30
2019-06-07T10:24:30.097Z,91.10
2019-06-07T10:27:17.928Z,91.30
2019-06-07T10:30:06.347Z,91.20
2019-06-07T10:32:54.470Z,90.90
2019-06-07T10:35:42.135Z,90.40
2019-06-07T10:38:29.630Z,90.30
2019-06-07T10:41:17.063Z,93.00
2019-06-07T10:44:05.623Z,90.90
2019-06-07T10:46:53.309Z,91.50
2019-06-07T10:49:41.017Z,92.20
2019-06-07T10:52:28.766Z,92.20
2019-06-07T10:55:16.589Z,90.90
2019-06-07T10:58:04.977Z,90.90
2019-06-07T11:00:52.481Z,91.20
2019-06-07T11:03:39.875Z,91.20
2019-06-07T11:06:28.162Z,91.00
2019-06-07T11:09:15.801Z,90.70
2019-06-07T11:12:04.321Z,90.50
2019-06-07T11:14:52.617Z,90.70
2019-06-07T11:17:40.805Z,90.50
2019-06-07T11:20:28.391Z,91.90
2019-06-07T11:23:15.721Z,91.00
2019-06-07T11:26:03.270Z,90.10
2019-06-07T11:28:50.850Z,90.20
2019-06-07T11:31:38.186Z,90.40
2019-06-07T11:34:26.170Z,90.40
2019-06-07T11:37:14.250Z,90.70
2019-06-07T11:40:03.245Z,88.80
2019-06-07T11:42:52.787Z,90.10
2019-06-07T11:45:40.370Z,91.20
2019-06-07T11:48:27.956Z,90.80
2019-06-07T11:51:15.591Z,91.40
2019-06-07T11:54:03.579Z,90.60
2019-06-07T11:56:51.062Z,90.50
2019-06-07T11:59:38.255Z,90.70
2019-06-07T12:02:25.899Z,90.00
2019-06-07T12:05:17.121Z,90.70
2019-06-07T12:08:03.008Z,89.30
2019-06-07T12:10:50.524Z,89.90
2019-06-07T12:13:38.285Z,89.90
2019-06-07T12:16:26.208Z,89.30
2019-06-07T12:19:15.448Z,89.70
2019-06-07T12:22:03.508Z,88.60
2019-06-07T12:24:51.919Z,88.60
2019-06-07T12:27:39.494Z,89.00
2019-06-07T12:30:28.115Z,87.60
2019-06-07T12:33:17.603Z,87.70
2019-06-07T12:36:05.731Z,88.00
2019-06-07T12:38:53.562Z,88.30
2019-06-07T12:41:41.543Z,87.90
2019-06-07T12:44:29.004Z,87.50
2019-06-07T12:47:16.979Z,86.50
2019-06-07T12:50:05.392Z,86.80
2019-06-07T12:52:53.304Z,85.40
2019-06-07T12:55:41.085Z,83.30
2019-06-07T12:58:34.907Z,83.60
2019-06-07T13:01:20.794Z,83.10
2019-06-07T13:04:08.378Z,82.90
2019-06-07T13:06:55.833Z,83.70
2019-06-07T13:09:43.425Z,82.30
2019-06-07T13:12:31.586Z,82.00
2019-06-07T13:15:21.610Z,81.40
2019-06-07T13:18:08.613Z,82.30
2019-06-07T13:20:55.893Z,81.20
2019-06-07T13:23:44.473Z,81.20
2019-06-07T13:26:32.409Z,81.00
2019-06-07T13:29:20.967Z,80.30
2019-06-07T13:32:08.613Z,79.10
2019-06-07T13:34:56.624Z,79.40
2019-06-07T13:37:44.567Z,79.10
2019-06-07T13:40:32.020Z,78.50
2019-06-07T13:43:19.901Z,76.90
2019-06-07T13:46:07.417Z,77.80
2019-06-07T13:48:55.107Z,78.40
2019-06-07T13:51:42.945Z,78.80
2019-06-07T13:54:30.475Z,76.50
2019-06-07T13:57:19.845Z,77.80
2019-06-07T14:00:10.973Z,80.70
2019-06-07T14:02:58.406Z,76.50
2019-06-07T14:05:46.396Z,77.90
2019-06-07T14:08:34.209Z,77.10
2019-06-07T14:11:21.868Z,75.40
2019-06-07T14:14:09.752Z,76.30
2019-06-07T14:16:57.351Z,75.80
2019-06-07T14:19:44.923Z,76.00
2019-06-07T14:22:32.800Z,75.90
2019-06-07T14:25:21.516Z,75.00
2019-06-07T14:28:11.389Z,74.80
2019-06-07T14:30:58.832Z,74.60
2019-06-07T14:33:46.877Z,76.30
2019-06-07T14:36:34.730Z,75.80
2019-06-07T14:39:23.053Z,74.90
2019-06-07T14:42:11.107Z,74.70
2019-06-07T14:44:59.253Z,73.90
2019-06-07T14:47:47.076Z,75.20
2019-06-07T14:50:34.872Z,75.50
2019-06-07T14:53:22.639Z,74.70
2019-06-07T14:56:10.606Z,73.90
2019-06-07T14:58:58.548Z,73.60
2019-06-07T15:01:46.546Z,74.00
2019-06-07T15:04:34.818Z,74.60
2019-06-07T15:07:22.535Z,75.20
2019-06-07T15:10:10.327Z,73.80
2019-06-07T15:12:57.722Z,74.00
2019-06-07T15:15:45.343Z,73.20
2019-06-07T15:18:33.882Z,73.40
2019-06-07T15:21:21.500Z,73.30
2019-06-07T15:24:08.631Z,72.60
2019-06-07T15:26:55.979Z,72.70
2019-06-07T15:29:43.185Z,72.60
2019-06-07T15:32:30.674Z,73.20
2019-06-07T15:35:19.102Z,72.70
2019-06-07T15:38:06.966Z,72.90
2019-06-07T15:40:54.803Z,73.70
2019-06-07T15:43:42.183Z,73.80
2019-06-07T15:46:29.725Z,73.90
2019-06-07T15:49:17.457Z,73.40
2019-06-07T15:52:05.287Z,73.30
2019-06-07T15:54:53.126Z,71.90
2019-06-07T15:57:42.425Z,71.70
2019-06-07T16:00:31.389Z,71.70
2019-06-07T16:03:19.629Z,71.90
2019-06-07T16:06:07.235Z,71.10
2019-06-07T16:08:55.025Z,70.30
2019-06-07T16:11:43.675Z,68.50
2019-06-07T16:14:33.108Z,67.40
2019-06-07T16:17:20.913Z,67.20
2019-06-07T16:20:09.711Z,66.40
2019-06-07T16:22:57.678Z,64.30
2019-06-07T16:25:45.105Z,62.70
2019-06-07T16:28:34.191Z,63.50
2019-06-07T16:31:21.956Z,62.10
2019-06-07T16:34:09.906Z,60.40
2019-06-07T16:36:57.554Z,61.20
2019-06-07T16:39:45.194Z,57.90
2019-06-07T16:42:32.525Z,58.40
2019-06-07T16:45:20.634Z,59.50
2019-06-07T16:48:08.117Z,59.30
2019-06-07T16:50:55.337Z,58.00
2019-06-07T16:53:42.874Z,56.50
2019-06-07T16:56:30.806Z,56.30
2019-06-07T16:59:18.218Z,55.70
2019-06-07T17:02:06.182Z,55.70
2019-06-07T17:04:53.874Z,56.60
2019-06-07T17:07:42.556Z,57.30
2019-06-07T17:10:31.610Z,57.20
2019-06-07T17:13:32.492Z,56.60
2019-06-07T17:16:08.677Z,57.00
2019-06-07T17:18:56.611Z,57.10
2019-06-07T17:21:45.301Z,56.40
2019-06-07T17:24:33.074Z,55.00
2019-06-07T17:27:20.771Z,55.80
2019-06-07T17:30:09.325Z,57.30
2019-06-07T17:32:59.523Z,57.10
2019-06-07T17:35:46.690Z,56.30
2019-06-07T17:38:34.633Z,57.20
2019-06-07T17:41:22.081Z,59.40
2019-06-07T17:44:09.772Z,61.30
2019-06-07T17:46:57.528Z,62.80
2019-06-07T17:49:45.804Z,64.10
2019-06-07T17:52:33.531Z,65.40
2019-06-07T17:55:21.246Z,66.70
2019-06-07T17:58:09.450Z,66.00
2019-06-07T18:00:57.189Z,67.60
2019-06-07T18:03:45.162Z,68.40
2019-06-07T18:06:34.447Z,69.70
2019-06-07T18:09:24.905Z,70.50
2019-06-07T18:12:13.116Z,71.80
2019-06-07T18:15:00.797Z,72.30
2019-06-07T18:17:48.551Z,75.50
2019-06-07T18:20:36.532Z,76.50
2019-06-07T18:23:24.018Z,75.50
2019-06-07T18:26:12.353Z,76.40
2019-06-07T18:28:59.922Z,77.80
2019-06-07T18:31:48.612Z,79.20
2019-06-07T18:34:36.619Z,81.00
2019-06-07T18:37:24.518Z,82.00
2019-06-07T18:40:12.342Z,84.80
2019-06-07T18:42:59.969Z,84.70
2019-06-07T18:45:47.681Z,87.80
2019-06-07T18:48:35.302Z,89.50
2019-06-07T18:51:23.228Z,90.40
2019-06-07T18:54:10.619Z,91.70
2019-06-07T18:56:59.019Z,92.90
2019-06-07T18:59:48.285Z,93.90
2019-06-07T19:02:36.278Z,94.60
2019-06-07T19:08:12.050Z,96.70
2019-06-07T19:11:00.718Z,97.20
2019-06-07T19:13:48.920Z,97.60
2019-06-07T19:16:36.675Z,97.50
2019-06-07T19:19:24.530Z,98.20
2019-06-07T19:22:12.563Z,98.10
2019-06-07T19:25:00.469Z,98.20
2019-06-07T19:27:48.442Z,98.40
2019-06-07T19:30:36.551Z,98.80
2019-06-07T19:33:24.387Z,99.40
2019-06-07T19:36:12.225Z,99.90
2019-06-07T19:39:00.079Z,99.90
2019-06-07T19:41:48.247Z,99.90
2019-06-07T19:44:36.094Z,99.10
2019-06-07T19:47:23.794Z,96.40
2019-06-07T19:50:12.734Z,93.10
2019-06-07T19:53:01.328Z,92.30
2019-06-07T19:55:49.563Z,92.60
2019-06-07T19:58:37.794Z,92.40
2019-06-07T20:01:25.817Z,92.10
2019-06-07T20:04:13.306Z,91.40
2019-06-07T20:07:00.921Z,90.70
2019-06-07T20:09:48.321Z,90.40
2019-06-07T20:12:36.343Z,90.10
2019-06-07T20:15:28.931Z,89.50
2019-06-07T20:18:13.518Z,89.40
2019-06-07T20:21:02.650Z,88.80
2019-06-07T20:23:50.117Z,88.10
2019-06-07T20:26:37.709Z,87.60
2019-06-07T20:29:26.556Z,87.10
2019-06-07T20:32:14.576Z,87.10
2019-06-07T20:35:02.222Z,86.80
2019-06-07T20:37:49.737Z,86.80
2019-06-07T20:40:37.577Z,86.80
2019-06-07T20:43:25.616Z,87.10
2019-06-07T20:46:13.281Z,87.90
2019-06-07T20:49:02.217Z,88.90
2019-06-07T20:51:50.303Z,89.00
2019-06-07T20:54:37.581Z,89.00
2019-06-07T20:57:24.890Z,89.70
2019-06-07T21:00:21.344Z,89.70
2019-06-07T21:03:05.360Z,90.10
2019-06-07T21:05:53.171Z,89.90
2019-06-07T21:08:40.738Z,90.20
2019-06-07T21:11:28.080Z,90.40
2019-06-07T21:14:15.973Z,90.50
2019-06-07T21:17:04.185Z,90.50
2019-06-07T21:19:51.979Z,90.70
2019-06-07T21:22:39.490Z,90.90
2019-06-07T21:25:27.991Z,91.10
2019-06-07T21:28:15.966Z,91.10
2019-06-07T21:33:52.666Z,87.30
2019-06-07T21:36:40.242Z,89.00
2019-06-07T21:39:27.790Z,90.10
2019-06-07T21:42:15.314Z,90.50
2019-06-07T21:45:05.681Z,91.30
2019-06-07T21:47:52.836Z,91.90
2019-06-07T21:50:40.404Z,92.20
2019-06-07T21:53:28.463Z,92.20
2019-06-07T21:56:16.294Z,92.20
2019-06-07T21:59:05.073Z,92.50
2019-06-07T22:01:53.234Z,93.00
2019-06-07T22:04:41.231Z,93.40
2019-06-07T22:07:28.590Z,94.10
2019-06-07T22:10:16.365Z,94.00
2019-06-07T22:13:04.242Z,94.40
2019-06-07T22:15:51.826Z,94.70
2019-06-07T22:18:39.677Z,95.00
2019-06-07T22:21:27.980Z,95.00
2019-06-07T22:24:15.485Z,95.00
2019-06-07T22:27:03.351Z,95.20
2019-06-07T22:29:50.869Z,95.50
2019-06-07T22:32:38.810Z,95.80
2019-06-07T22:35:26.781Z,96.00
2019-06-07T22:38:14.713Z,96.00
2019-06-07T22:41:02.403Z,96.20
2019-06-07T22:43:50.372Z,96.20
2019-06-07T22:46:38.067Z,96.30
2019-06-07T22:49:26.179Z,96.30
2019-06-07T22:52:15.343Z,96.60
2019-06-07T22:55:03.420Z,96.90
2019-06-07T22:57:55.195Z,96.50
2019-06-07T23:00:42.954Z,96.80
2019-06-07T23:03:30.769Z,96.80
2019-06-07T23:06:18.996Z,96.60
2019-06-07T23:09:08.748Z,96.50
2019-06-07T23:11:56.905Z,96.50
2019-06-07T23:14:44.561Z,96.60
2019-06-07T23:17:32.515Z,96.40
2019-06-07T23:20:20.311Z,96.60
2019-06-07T23:23:08.617Z,96.60
2019-06-07T23:25:56.289Z,96.60
2019-06-07T23:28:44.273Z,96.50
2019-06-07T23:31:32.510Z,96.80
2019-06-07T23:34:21.032Z,97.20
2019-06-07T23:37:08.806Z,97.20
2019-06-07T23:39:56.696Z,97.00
2019-06-07T23:42:44.519Z,96.80
2019-06-07T23:45:32.314Z,97.00
2019-06-07T23:48:20.137Z,97.40
2019-06-07T23:51:08.199Z,97.60
2019-06-07T23:53:55.798Z,97.60
2019-06-07T23:56:43.122Z,97.50
2019-06-07T23:59:30.658Z,97.50
